Time;durP1;ratioP1;P1;durP2;ratioP2;P2;SDS_P1;SDS_P2;PMS_P1;PMS_P2;Temp;Humidity;BMP_temperature;BMP_pressure;BME280_temperature;BME280_humidity;BME280_pressure;Samples;Min_cycle;Max_cycle;Signal;HPM_P1;HPM_P2
2022/04/23 00:01:59;;;;;;;;;;;24.20;37.50;;;;;;1561591;75;1965;-66
2022/04/23 00:04:01;;;;;;;;;;;24.30;37.60;;;;;;1546280;75;1171;-66
2022/04/23 00:06:03;;;;;;;;;;;24.30;37.70;;;;;;1546276;75;691;-68
2022/04/23 00:08:06;;;;;;;;;;;24.20;37.50;;;;;;1546407;75;713;-66
2022/04/23 00:10:12;;;;;;;;;;;24.10;37.50;;;;;;1559491;75;705;-66
2022/04/23 00:12:12;;;;;;;;;;;24.20;37.50;;;;;;1552620;75;1579;-68
2022/04/23 00:14:13;;;;;;;;;;;24.20;37.60;;;;;;1555441;75;1162;-68
2022/04/23 00:16:15;;;;;;;;;;;24.20;37.60;;;;;;1558972;75;712;-65
2022/04/23 00:18:18;;;;;;;;;;;24.20;37.60;;;;;;1560515;75;805;-65
2022/04/23 00:20:23;;;;;;;;;;;24.20;37.60;;;;;;1551725;75;726;-66
2022/04/23 00:22:23;;;;;;;;;;;24.20;37.60;;;;;;1558687;75;1934;-64
2022/04/23 00:24:26;;;;;;;;;;;24.20;37.60;;;;;;1558651;75;1100;-65
2022/04/23 00:26:28;;;;;;;;;;;24.20;37.60;;;;;;1549480;75;674;-66
2022/04/23 00:28:29;;;;;;;;;;;24.20;37.70;;;;;;1563205;75;632;-66
2022/04/23 00:30:32;;;;;;;;;;;24.20;37.70;;;;;;1569044;75;945;-66
2022/04/23 00:32:34;;;;;;;;;;;24.20;37.80;;;;;;1557265;75;742;-65
2022/04/23 00:34:35;;;;;;;;;;;24.20;37.70;;;;;;1563791;75;1164;-66
2022/04/23 00:36:38;;;;;;;;;;;24.30;38.00;;;;;;1560844;75;687;-66
2022/04/23 00:38:42;;;;;;;;;;;24.20;37.80;;;;;;1562384;75;693;-66
2022/04/23 00:40:44;;;;;;;;;;;24.20;37.80;;;;;;1561079;75;775;-66
2022/04/23 00:42:51;;;;;;;;;;;24.30;38.00;;;;;;1555209;75;1924;-66
2022/04/23 00:44:53;;;;;;;;;;;24.20;37.90;;;;;;1561814;75;1152;-65
2022/04/23 00:46:55;;;;;;;;;;;24.20;37.90;;;;;;1558802;75;685;-65
2022/04/23 00:49:03;;;;;;;;;;;24.30;38.10;;;;;;1564565;75;648;-65
2022/04/23 00:51:01;;;;;;;;;;;24.30;38.00;;;;;;1547845;75;1627;-65
2022/04/23 00:53:03;;;;;;;;;;;24.30;38.00;;;;;;1555255;75;662;-67
2022/04/23 00:55:05;;;;;;;;;;;24.30;38.10;;;;;;1545768;75;1158;-65
2022/04/23 00:57:07;;;;;;;;;;;24.20;38.10;;;;;;1560349;75;748;-65
2022/04/23 00:59:09;;;;;;;;;;;24.20;38.10;;;;;;1553430;75;751;-66
2022/04/23 01:01:11;;;;;;;;;;;24.20;38.10;;;;;;1554674;75;687;-67
2022/04/23 01:03:13;;;;;;;;;;;24.20;38.10;;;;;;1558238;75;1942;-65
2022/04/23 01:05:15;;;;;;;;;;;24.20;38.10;;;;;;1555111;75;1179;-65
2022/04/23 01:07:16;;;;;;;;;;;24.20;38.10;;;;;;1564741;75;631;-66
2022/04/23 01:09:19;;;;;;;;;;;24.20;38.10;;;;;;1551333;75;771;-65
2022/04/23 01:11:21;;;;;;;;;;;24.20;38.10;;;;;;1568107;75;656;-67
2022/04/23 01:13:25;;;;;;;;;;;24.20;38.10;;;;;;1557849;75;725;-65
2022/04/23 01:15:46;;;;;;;;;;;24.10;38.10;;;;;;1560960;75;1677;-65
2022/04/23 01:17:49;;;;;;;;;;;24.20;38.10;;;;;;1601376;73;693;-58
2022/04/23 01:19:51;;;;;;;;;;;24.10;38.10;;;;;;1602048;73;1236;-57
2022/04/23 01:21:54;;;;;;;;;;;24.20;38.10;;;;;;1593347;73;673;-59
2022/04/23 01:23:57;;;;;;;;;;;24.20;38.10;;;;;;1590468;73;1933;-57
2022/04/23 01:25:59;;;;;;;;;;;24.20;38.10;;;;;;1587478;73;742;-61
2022/04/23 01:28:00;;;;;;;;;;;24.20;38.10;;;;;;1595957;73;667;-57
2022/04/23 01:30:02;;;;;;;;;;;24.20;38.10;;;;;;1601327;73;1138;-61
2022/04/23 01:32:04;;;;;;;;;;;24.20;38.10;;;;;;1602280;73;665;-59
2022/04/23 01:34:06;;;;;;;;;;;24.20;38.20;;;;;;1594919;73;797;-59
2022/04/23 01:36:08;;;;;;;;;;;24.20;38.10;;;;;;1592319;73;722;-58
2022/04/23 01:38:11;;;;;;;;;;;24.20;38.20;;;;;;1593960;73;742;-60
2022/04/23 01:40:12;;;;;;;;;;;24.20;38.20;;;;;;1588213;73;1146;-60
2022/04/23 01:42:17;;;;;;;;;;;24.20;38.20;;;;;;1596416;73;726;-61
2022/04/23 01:44:18;;;;;;;;;;;24.20;38.20;;;;;;1589459;73;1930;-59
2022/04/23 01:46:20;;;;;;;;;;;24.20;38.20;;;;;;1594581;73;690;-59
2022/04/23 01:48:22;;;;;;;;;;;24.20;38.20;;;;;;1594346;73;817;-58
2022/04/23 01:50:24;;;;;;;;;;;24.20;38.30;;;;;;1588125;73;1119;-61
2022/04/23 01:52:26;;;;;;;;;;;24.20;38.30;;;;;;1594844;73;684;-59
2022/04/23 01:54:27;;;;;;;;;;;24.10;38.30;;;;;;1595702;73;679;-61
2022/04/23 01:56:29;;;;;;;;;;;24.10;38.30;;;;;;1597695;73;674;-59
2022/04/23 01:58:31;;;;;;;;;;;24.20;38.30;;;;;;1592333;73;684;-58
2022/04/23 02:00:33;;;;;;;;;;;24.10;38.40;;;;;;1588631;73;1589;-59
2022/04/23 02:02:36;;;;;;;;;;;24.20;38.40;;;;;;1595436;73;1932;-59
2022/04/23 02:04:38;;;;;;;;;;;24.20;38.40;;;;;;1599502;73;684;-59
2022/04/23 02:06:40;;;;;;;;;;;24.20;38.40;;;;;;1596640;73;675;-59
2022/04/23 02:08:42;;;;;;;;;;;24.20;38.40;;;;;;1600706;73;731;-58
2022/04/23 02:10:45;;;;;;;;;;;24.20;38.40;;;;;;1597869;73;687;-59
2022/04/23 02:12:47;;;;;;;;;;;24.10;38.40;;;;;;1599754;74;687;-59
2022/04/23 02:14:49;;;;;;;;;;;24.20;38.50;;;;;;1598527;73;708;-58
2022/04/23 02:16:52;;;;;;;;;;;24.20;38.50;;;;;;1602271;72;805;-58
2022/04/23 02:18:53;;;;;;;;;;;24.20;38.40;;;;;;1602517;73;1123;-60
2022/04/23 02:20:55;;;;;;;;;;;24.10;38.50;;;;;;1595212;72;685;-60
2022/04/23 02:22:57;;;;;;;;;;;24.20;38.40;;;;;;1608112;73;1928;-57
2022/04/23 02:24:59;;;;;;;;;;;24.20;38.50;;;;;;1602288;73;663;-58
2022/04/23 02:27:01;;;;;;;;;;;24.20;38.50;;;;;;1601945;72;749;-58
2022/04/23 02:29:03;;;;;;;;;;;24.20;38.50;;;;;;1596558;73;1134;-57
2022/04/23 02:31:06;;;;;;;;;;;24.20;38.60;;;;;;1600389;73;745;-59
2022/04/23 02:33:08;;;;;;;;;;;24.20;38.60;;;;;;1605966;73;672;-57
2022/04/23 02:35:10;;;;;;;;;;;24.30;38.60;;;;;;1604872;74;696;-58
2022/04/23 02:37:12;;;;;;;;;;;24.30;38.60;;;;;;1604215;73;729;-59
2022/04/23 02:39:14;;;;;;;;;;;24.40;38.50;;;;;;1604532;74;1135;-59
2022/04/23 02:41:16;;;;;;;;;;;24.40;38.40;;;;;;1603924;73;727;-59
2022/04/23 02:43:18;;;;;;;;;;;24.40;38.60;;;;;;1599666;73;1932;-59
2022/04/23 02:45:20;;;;;;;;;;;24.30;38.70;;;;;;1603476;74;665;-58
2022/04/23 02:47:22;;;;;;;;;;;24.20;38.80;;;;;;1598277;72;666;-60
2022/04/23 02:49:24;;;;;;;;;;;24.10;39.00;;;;;;1605960;72;1139;-60
2022/04/23 02:51:26;;;;;;;;;;;24.10;39.10;;;;;;1604109;73;822;-60
2022/04/23 02:53:28;;;;;;;;;;;24.10;39.20;;;;;;1589793;73;671;-58
2022/04/23 02:55:31;;;;;;;;;;;24.10;39.40;;;;;;1603480;73;667;-59
2022/04/23 02:57:33;;;;;;;;;;;24.00;39.20;;;;;;1602648;72;1568;-60
2022/04/23 02:59:35;;;;;;;;;;;24.00;39.20;;;;;;1607288;72;1172;-59
2022/04/23 03:01:39;;;;;;;;;;;24.00;39.20;;;;;;1598628;72;734;-60
2022/04/23 03:03:40;;;;;;;;;;;24.00;39.20;;;;;;1591775;73;1928;-58
2022/04/23 03:05:42;;;;;;;;;;;24.00;39.20;;;;;;1607629;73;669;-59
2022/04/23 03:07:50;;;;;;;;;;;24.00;39.20;;;;;;1605718;73;772;-59
2022/04/23 03:09:48;;;;;;;;;;;24.00;39.20;;;;;;1596299;73;1240;-60
2022/04/23 03:11:50;;;;;;;;;;;24.00;39.20;;;;;;1605518;74;727;-60
2022/04/23 03:13:52;;;;;;;;;;;24.10;39.30;;;;;;1603283;73;746;-58
2022/04/23 03:15:54;;;;;;;;;;;24.10;39.20;;;;;;1604826;73;1480;-59
2022/04/23 03:18:03;;;;;;;;;;;24.00;39.10;;;;;;1595876;73;773;-59
2022/04/23 03:20:07;;;;;;;;;;;24.00;39.10;;;;;;1588260;73;1154;-59
2022/04/23 03:22:09;;;;;;;;;;;24.00;38.90;;;;;;1588418;73;650;-58
2022/04/23 03:24:11;;;;;;;;;;;24.10;39.00;;;;;;1590978;73;1953;-59
2022/04/23 03:26:13;;;;;;;;;;;24.10;38.90;;;;;;1577736;73;666;-58
2022/04/23 03:28:16;;;;;;;;;;;24.00;38.90;;;;;;1587935;73;684;-60
2022/04/23 03:30:20;;;;;;;;;;;24.10;38.90;;;;;;1585618;74;1100;-58
2022/04/23 03:32:22;;;;;;;;;;;24.10;39.00;;;;;;1587050;74;755;-60
2022/04/23 03:34:24;;;;;;;;;;;24.10;39.00;;;;;;1590857;73;801;-60
2022/04/23 03:36:26;;;;;;;;;;;24.20;39.00;;;;;;1590441;74;702;-59
2022/04/23 03:38:27;;;;;;;;;;;24.10;39.00;;;;;;1591124;73;698;-58
2022/04/23 03:40:29;;;;;;;;;;;24.10;39.20;;;;;;1591612;74;1107;-60
2022/04/23 03:42:31;;;;;;;;;;;24.20;39.10;;;;;;1586452;73;765;-59
2022/04/23 03:44:33;;;;;;;;;;;24.20;39.00;;;;;;1589438;74;1940;-58
2022/04/23 03:46:35;;;;;;;;;;;24.10;39.00;;;;;;1590507;73;702;-59
2022/04/23 03:48:37;;;;;;;;;;;24.20;38.90;;;;;;1590218;73;678;-57
2022/04/23 03:50:39;;;;;;;;;;;24.10;38.90;;;;;;1584821;73;1042;-57
2022/04/23 03:52:40;;;;;;;;;;;24.20;38.90;;;;;;1586402;73;1552;-58
2022/04/23 03:54:42;;;;;;;;;;;24.00;38.60;;;;;;1591347;73;696;-58
2022/04/23 03:56:44;;;;;;;;;;;24.10;38.70;;;;;;1589420;73;681;-58
2022/04/23 03:58:46;;;;;;;;;;;24.20;38.80;;;;;;1591242;74;1191;-58
2022/04/23 04:00:48;;;;;;;;;;;24.20;38.90;;;;;;1592156;73;688;-58
2022/04/23 04:02:50;;;;;;;;;;;24.10;38.80;;;;;;1590444;74;660;-59
2022/04/23 04:04:54;;;;;;;;;;;24.10;38.80;;;;;;1587609;73;1935;-60
2022/04/23 04:06:56;;;;;;;;;;;24.10;38.70;;;;;;1590952;73;1360;-57
2022/04/23 04:08:58;;;;;;;;;;;24.20;38.80;;;;;;1591110;73;1139;-58
2022/04/23 04:10:59;;;;;;;;;;;24.10;38.80;;;;;;1585875;74;741;-60
2022/04/23 04:13:02;;;;;;;;;;;24.10;38.80;;;;;;1588824;73;662;-59
2022/04/23 04:15:06;;;;;;;;;;;24.20;38.80;;;;;;1583338;74;761;-58
2022/04/23 04:17:09;;;;;;;;;;;24.10;38.80;;;;;;1587671;73;1629;-58
2022/04/23 04:19:12;;;;;;;;;;;24.10;38.90;;;;;;1591140;74;1103;-59
2022/04/23 04:21:15;;;;;;;;;;;24.10;38.90;;;;;;1590447;73;1557;-58
2022/04/23 04:23:17;;;;;;;;;;;24.20;38.90;;;;;;1583190;73;662;-58
2022/04/23 04:25:18;;;;;;;;;;;24.20;38.90;;;;;;1584886;73;1937;-57
2022/04/23 04:27:20;;;;;;;;;;;24.10;38.80;;;;;;1591058;74;730;-59
2022/04/23 04:29:22;;;;;;;;;;;24.20;38.80;;;;;;1597584;74;1176;-59
2022/04/23 04:33:44;;;;;;;;;;;24.20;38.90;;;;;;1589673;73;1607;-58
2022/04/23 04:35:46;;;;;;;;;;;24.10;38.90;;;;;;1582771;73;1447;-58
2022/04/23 04:37:48;;;;;;;;;;;24.10;38.90;;;;;;1591325;73;665;-61
2022/04/23 04:39:50;;;;;;;;;;;24.00;38.80;;;;;;1591685;74;1143;-58
2022/04/23 04:41:52;;;;;;;;;;;24.20;38.90;;;;;;1591923;73;696;-60
2022/04/23 04:43:54;;;;;;;;;;;24.10;38.90;;;;;;1595716;73;1941;-58
2022/04/23 04:45:56;;;;;;;;;;;24.10;38.80;;;;;;1590467;74;665;-59
2022/04/23 04:47:58;;;;;;;;;;;24.10;38.80;;;;;;1590842;73;660;-59
2022/04/23 04:50:01;;;;;;;;;;;24.10;39.00;;;;;;1590298;73;1566;-57
2022/04/23 04:52:03;;;;;;;;;;;24.00;39.00;;;;;;1573306;73;674;-57
2022/04/23 04:54:05;;;;;;;;;;;24.10;39.10;;;;;;1589781;74;673;-60
2022/04/23 04:56:07;;;;;;;;;;;24.10;39.10;;;;;;1582695;73;672;-60
2022/04/23 04:58:09;;;;;;;;;;;24.10;39.30;;;;;;1596149;74;632;-59
2022/04/23 05:00:11;;;;;;;;;;;24.10;39.40;;;;;;1585088;73;1166;-58
2022/04/23 05:02:13;;;;;;;;;;;24.10;39.40;;;;;;1585527;74;709;-59
2022/04/23 05:04:15;;;;;;;;;;;24.00;39.20;;;;;;1582164;73;1938;-59
2022/04/23 05:06:17;;;;;;;;;;;24.00;39.20;;;;;;1579710;73;680;-60
2022/04/23 05:08:19;;;;;;;;;;;24.00;39.20;;;;;;1584630;74;692;-61
2022/04/23 05:10:21;;;;;;;;;;;24.00;39.30;;;;;;1586488;74;1182;-60
2022/04/23 05:12:23;;;;;;;;;;;24.00;39.30;;;;;;1585718;73;694;-59
2022/04/23 05:14:25;;;;;;;;;;;24.00;39.20;;;;;;1583647;73;666;-60
2022/04/23 05:16:26;;;;;;;;;;;24.10;39.40;;;;;;1591191;73;702;-60
2022/04/23 05:18:28;;;;;;;;;;;24.10;39.50;;;;;;1582011;73;1615;-60
2022/04/23 05:20:30;;;;;;;;;;;24.00;39.40;;;;;;1579775;73;1152;-58
2022/04/23 05:22:32;;;;;;;;;;;24.00;39.30;;;;;;1587036;73;706;-60
2022/04/23 05:24:34;;;;;;;;;;;24.10;39.40;;;;;;1581930;74;1949;-61
2022/04/23 05:26:36;;;;;;;;;;;24.10;39.20;;;;;;1591296;73;763;-59
2022/04/23 05:28:39;;;;;;;;;;;24.20;39.20;;;;;;1581890;74;720;-58
2022/04/23 05:30:41;;;;;;;;;;;24.10;39.10;;;;;;1588241;73;1162;-59
2022/04/23 05:32:43;;;;;;;;;;;24.20;39.00;;;;;;1582571;73;1737;-60
2022/04/23 05:34:45;;;;;;;;;;;24.20;38.90;;;;;;1587058;73;675;-58
2022/04/23 05:36:47;;;;;;;;;;;24.20;38.90;;;;;;1589247;73;796;-60
2022/04/23 05:38:49;;;;;;;;;;;24.20;38.90;;;;;;1591285;73;1157;-58
2022/04/23 05:40:51;;;;;;;;;;;24.20;38.90;;;;;;1591008;73;765;-59
2022/04/23 05:42:58;;;;;;;;;;;24.20;38.90;;;;;;1591179;73;708;-58
2022/04/23 05:44:59;;;;;;;;;;;24.20;38.90;;;;;;1591075;73;1929;-59
2022/04/23 05:47:01;;;;;;;;;;;24.20;38.90;;;;;;1591262;73;1578;-58
2022/04/23 05:49:03;;;;;;;;;;;24.10;38.90;;;;;;1586847;73;1152;-61
2022/04/23 05:51:05;;;;;;;;;;;24.10;39.20;;;;;;1586921;73;680;-58
2022/04/23 05:53:06;;;;;;;;;;;24.20;39.00;;;;;;1587089;73;738;-57
2022/04/23 05:55:08;;;;;;;;;;;24.10;39.20;;;;;;1584243;73;734;-59
2022/04/23 05:57:10;;;;;;;;;;;24.10;39.20;;;;;;1586177;73;705;-58
2022/04/23 05:59:12;;;;;;;;;;;24.20;39.20;;;;;;1590534;74;1632;-58
2022/04/23 06:01:14;;;;;;;;;;;24.10;39.20;;;;;;1591001;73;748;-60
2022/04/23 06:03:16;;;;;;;;;;;24.10;39.20;;;;;;1591561;73;644;-57
2022/04/23 06:05:18;;;;;;;;;;;24.10;39.20;;;;;;1584904;73;1919;-60
2022/04/23 06:07:20;;;;;;;;;;;24.00;39.00;;;;;;1592776;73;737;-58
2022/04/23 06:09:22;;;;;;;;;;;24.00;39.00;;;;;;1594368;74;1113;-59
2022/04/23 06:11:24;;;;;;;;;;;24.10;39.10;;;;;;1586709;74;711;-58
2022/04/23 06:13:26;;;;;;;;;;;24.00;38.90;;;;;;1589640;73;1330;-59
2022/04/23 06:15:28;;;;;;;;;;;24.10;39.00;;;;;;1585347;74;679;-58
2022/04/23 06:17:30;;;;;;;;;;;24.00;38.90;;;;;;1590798;73;796;-60
2022/04/23 06:19:32;;;;;;;;;;;24.20;39.10;;;;;;1582766;73;1136;-60
2022/04/23 06:21:34;;;;;;;;;;;24.10;39.10;;;;;;1593191;73;553;-61
2022/04/23 06:23:36;;;;;;;;;;;24.10;39.10;;;;;;1590283;74;685;-60
2022/04/23 06:25:38;;;;;;;;;;;24.10;39.00;;;;;;1582136;73;1950;-58
2022/04/23 06:27:39;;;;;;;;;;;24.10;39.00;;;;;;1587864;74;1525;-58
2022/04/23 06:29:41;;;;;;;;;;;24.10;39.00;;;;;;1590030;73;1128;-57
2022/04/23 06:31:44;;;;;;;;;;;24.00;38.90;;;;;;1591914;73;724;-60
2022/04/23 06:33:45;;;;;;;;;;;24.00;38.90;;;;;;1587612;73;720;-56
2022/04/23 06:35:47;;;;;;;;;;;24.10;39.10;;;;;;1594687;74;799;-57
2022/04/23 06:37:49;;;;;;;;;;;24.10;39.00;;;;;;1580877;73;670;-58
2022/04/23 06:39:51;;;;;;;;;;;24.10;39.10;;;;;;1581904;73;1139;-58
2022/04/23 06:41:53;;;;;;;;;;;24.10;39.10;;;;;;1583771;73;1587;-57
2022/04/23 06:43:55;;;;;;;;;;;24.10;39.10;;;;;;1582937;73;697;-56
2022/04/23 06:45:57;;;;;;;;;;;24.00;39.20;;;;;;1589783;73;1948;-58
2022/04/23 06:48:03;;;;;;;;;;;24.10;39.30;;;;;;1587990;73;711;-59
2022/04/23 06:50:03;;;;;;;;;;;24.00;39.20;;;;;;1591587;73;1616;-57
2022/04/23 06:52:05;;;;;;;;;;;24.10;39.20;;;;;;1589887;73;709;-59
2022/04/23 06:54:07;;;;;;;;;;;24.00;39.10;;;;;;1589721;73;676;-58
2022/04/23 06:56:09;;;;;;;;;;;24.00;39.10;;;;;;1586283;73;1391;-58
2022/04/23 06:58:11;;;;;;;;;;;24.10;39.30;;;;;;1591423;73;691;-58
2022/04/23 07:00:14;;;;;;;;;;;24.10;39.40;;;;;;1586557;73;1134;-58
2022/04/23 07:02:16;;;;;;;;;;;24.10;39.40;;;;;;1578830;73;638;-59
2022/04/23 07:04:18;;;;;;;;;;;24.00;39.20;;;;;;1588690;73;697;-58
2022/04/23 07:06:19;;;;;;;;;;;24.00;39.20;;;;;;1591078;73;1949;-58
2022/04/23 07:08:21;;;;;;;;;;;24.00;39.20;;;;;;1589028;73;707;-58
2022/04/23 07:10:23;;;;;;;;;;;24.10;39.30;;;;;;1590818;73;1600;-59
2022/04/23 07:12:25;;;;;;;;;;;24.10;39.40;;;;;;1587137;73;774;-60
2022/04/23 07:14:27;;;;;;;;;;;24.10;39.40;;;;;;1590409;73;755;-59
2022/04/23 07:16:29;;;;;;;;;;;24.10;39.50;;;;;;1590925;73;640;-59
2022/04/23 07:18:31;;;;;;;;;;;24.20;39.50;;;;;;1591982;73;674;-61
2022/04/23 07:20:33;;;;;;;;;;;24.10;39.60;;;;;;1586497;73;1103;-58
2022/04/23 07:22:35;;;;;;;;;;;24.20;39.60;;;;;;1586245;73;703;-58
2022/04/23 07:24:37;;;;;;;;;;;24.20;39.50;;;;;;1586556;73;1933;-59
2022/04/23 07:26:40;;;;;;;;;;;24.10;39.50;;;;;;1586858;73;693;-59
2022/04/23 07:28:42;;;;;;;;;;;24.10;39.40;;;;;;1588855;74;920;-59
2022/04/23 07:30:44;;;;;;;;;;;24.20;39.60;;;;;;1587068;73;743;-60
2022/04/23 07:32:46;;;;;;;;;;;24.20;40.00;;;;;;1583301;73;740;-57
2022/04/23 07:39:28;;;;;;;;;;;24.20;40.60;;;;;;1589788;73;1579;-58
2022/04/23 07:41:30;;;;;;;;;;;24.30;40.30;;;;;;1583842;73;756;-59
2022/04/23 07:43:32;;;;;;;;;;;24.20;40.00;;;;;;1585493;73;768;-56
2022/04/23 07:45:34;;;;;;;;;;;24.30;39.90;;;;;;1587903;73;1938;-60
2022/04/23 07:47:35;;;;;;;;;;;24.30;39.70;;;;;;1585678;73;676;-57
2022/04/23 07:49:37;;;;;;;;;;;24.40;39.40;;;;;;1583364;73;1145;-57
2022/04/23 07:51:40;;;;;;;;;;;24.50;39.20;;;;;;1581886;73;1579;-55
2022/04/23 07:53:42;;;;;;;;;;;24.50;38.90;;;;;;1584599;73;672;-59
2022/04/23 07:55:44;;;;;;;;;;;24.70;38.70;;;;;;1579556;73;663;-57
2022/04/23 07:57:46;;;;;;;;;;;24.60;38.40;;;;;;1577731;74;788;-58
2022/04/23 07:59:48;;;;;;;;;;;24.70;38.40;;;;;;1588329;73;1136;-59
2022/04/23 08:01:51;;;;;;;;;;;24.80;38.20;;;;;;1588953;73;754;-58
2022/04/23 08:03:52;;;;;;;;;;;24.70;38.10;;;;;;1582060;73;677;-57
2022/04/23 08:05:54;;;;;;;;;;;24.80;37.90;;;;;;1581152;73;1927;-56
2022/04/23 08:07:56;;;;;;;;;;;24.80;37.80;;;;;;1591679;73;726;-56
2022/04/23 08:09:58;;;;;;;;;;;24.80;37.70;;;;;;1582634;73;1187;-58
2022/04/23 08:12:00;;;;;;;;;;;24.80;37.70;;;;;;1588818;73;686;-58
2022/04/23 08:14:03;;;;;;;;;;;24.70;37.70;;;;;;1590804;73;688;-59
2022/04/23 08:16:05;;;;;;;;;;;24.70;37.80;;;;;;1587440;73;682;-56
2022/04/23 08:18:07;;;;;;;;;;;24.70;37.80;;;;;;1585977;73;709;-55
2022/04/23 08:20:10;;;;;;;;;;;24.60;37.80;;;;;;1589134;73;1544;-56
2022/04/23 08:22:12;;;;;;;;;;;24.60;37.80;;;;;;1587651;73;606;-57
2022/04/23 08:24:14;;;;;;;;;;;24.60;37.80;;;;;;1588429;73;710;-58
2022/04/23 08:26:16;;;;;;;;;;;24.60;37.90;;;;;;1584042;73;1954;-57
2022/04/23 08:30:37;;;;;;;;;;;24.60;38.00;;;;;;1589531;73;1601;-59
2022/04/23 08:32:39;;;;;;;;;;;24.50;38.00;;;;;;1591609;73;737;-59
2022/04/23 08:34:41;;;;;;;;;;;24.50;38.10;;;;;;1587974;73;1523;-57
2022/04/23 08:36:43;;;;;;;;;;;24.30;38.10;;;;;;1589070;73;678;-58
2022/04/23 08:38:45;;;;;;;;;;;24.40;38.10;;;;;;1588682;73;1127;-58
2022/04/23 08:40:47;;;;;;;;;;;24.30;38.20;;;;;;1589220;73;718;-55
2022/04/23 08:42:51;;;;;;;;;;;24.30;38.30;;;;;;1590287;73;696;-56
2022/04/23 08:44:53;;;;;;;;;;;24.30;38.40;;;;;;1583084;73;666;-57
2022/04/23 08:46:55;;;;;;;;;;;24.20;38.40;;;;;;1590727;73;1897;-57
2022/04/23 08:48:58;;;;;;;;;;;24.20;38.40;;;;;;1580892;73;1575;-57
2022/04/23 08:51:00;;;;;;;;;;;24.20;38.50;;;;;;1583843;73;1858;-60
2022/04/23 08:53:02;;;;;;;;;;;24.20;38.50;;;;;;1589950;73;664;-60
2022/04/23 08:55:05;;;;;;;;;;;24.20;38.50;;;;;;1589202;73;704;-60
2022/04/23 08:57:07;;;;;;;;;;;24.30;38.60;;;;;;1584755;73;752;-60
2022/04/23 08:59:11;;;;;;;;;;;24.40;37.30;;;;;;1591726;73;1157;-58
2022/04/23 09:01:13;;;;;;;;;;;24.50;37.20;;;;;;1590863;73;770;-59
2022/04/23 09:03:15;;;;;;;;;;;24.50;37.40;;;;;;1590357;73;1597;-58
2022/04/23 09:05:17;;;;;;;;;;;24.50;37.30;;;;;;1591511;73;1913;-58
2022/04/23 09:07:19;;;;;;;;;;;24.60;37.00;;;;;;1589393;73;747;-56
2022/04/23 09:09:22;;;;;;;;;;;24.60;37.00;;;;;;1580678;73;1167;-57
2022/04/23 09:11:35;;;;;;;;;;;24.60;36.80;;;;;;1587070;73;680;-59
2022/04/23 09:13:37;;;;;;;;;;;24.70;37.10;;;;;;1587492;73;741;-59
2022/04/23 09:24:54;;;;;;;;;;;24.50;36.50;;;;;;1578088;73;1651;-61
2022/04/23 09:27:03;;;;;;;;;;;24.40;36.50;;;;;;1586459;74;1920;-58
2022/04/23 09:29:14;;;;;;;;;;;24.40;36.20;;;;;;1584051;74;1151;-58
2022/04/23 09:31:16;;;;;;;;;;;24.40;36.00;;;;;;1591424;73;1525;-57
2022/04/23 09:33:21;;;;;;;;;;;24.30;36.50;;;;;;1586949;73;684;-60
2022/04/23 09:35:22;;;;;;;;;;;24.30;36.50;;;;;;1590559;73;2126;-61
2022/04/23 09:39:35;;;;;;;;;;;24.30;36.60;;;;;;1516685;74;1141;-58
2022/04/23 09:41:37;;;;;;;;;;;24.20;36.50;;;;;;1586768;73;687;-59
2022/04/23 09:43:39;;;;;;;;;;;24.20;36.40;;;;;;1590189;74;733;-58
2022/04/23 09:45:44;;;;;;;;;;;24.20;36.40;;;;;;1585020;73;1942;-58
2022/04/23 09:47:46;;;;;;;;;;;24.20;36.30;;;;;;1590710;73;719;-58
2022/04/23 09:49:57;;;;;;;;;;;24.20;36.40;;;;;;1590499;73;1139;-59
2022/04/23 09:52:05;;;;;;;;;;;24.20;36.40;;;;;;1585871;73;800;-61
2022/04/23 09:54:07;;;;;;;;;;;24.20;36.50;;;;;;1589358;74;677;-59
2022/04/23 09:56:10;;;;;;;;;;;24.20;36.40;;;;;;1588394;73;685;-59
2022/04/23 09:58:13;;;;;;;;;;;24.20;36.40;;;;;;1592009;73;1570;-58
2022/04/23 10:00:15;;;;;;;;;;;24.10;36.40;;;;;;1589544;73;1139;-57
2022/04/23 10:02:18;;;;;;;;;;;24.00;36.30;;;;;;1591932;73;684;-58
2022/04/23 10:04:21;;;;;;;;;;;24.00;36.30;;;;;;1587588;73;894;-60
2022/04/23 10:06:23;;;;;;;;;;;24.00;36.30;;;;;;1581436;73;1930;-59
2022/04/23 10:08:26;;;;;;;;;;;24.00;36.30;;;;;;1584073;73;686;-58
2022/04/23 10:10:28;;;;;;;;;;;24.00;36.30;;;;;;1587813;73;1142;-59
2022/04/23 10:12:31;;;;;;;;;;;24.00;36.30;;;;;;1591974;73;1713;-58
2022/04/23 10:14:34;;;;;;;;;;;24.00;36.30;;;;;;1587460;73;688;-61
2022/04/23 10:16:36;;;;;;;;;;;24.00;36.20;;;;;;1587343;73;673;-58
2022/04/23 10:18:38;;;;;;;;;;;24.00;36.20;;;;;;1590597;73;699;-58
2022/04/23 10:20:40;;;;;;;;;;;23.90;36.20;;;;;;1590946;73;1065;-58
2022/04/23 10:23:00;;;;;;;;;;;24.00;36.30;;;;;;1590794;73;667;-58
2022/04/23 10:25:04;;;;;;;;;;;23.90;36.20;;;;;;1586181;73;779;-60
2022/04/23 10:27:09;;;;;;;;;;;23.90;36.20;;;;;;1586347;73;1923;-58
2022/04/23 10:29:14;;;;;;;;;;;23.90;36.20;;;;;;1587355;73;1108;-60
2022/04/23 10:31:16;;;;;;;;;;;23.90;36.20;;;;;;1589454;73;1648;-59
2022/04/23 10:33:27;;;;;;;;;;;23.90;36.20;;;;;;1591865;73;695;-62
2022/04/23 10:35:31;;;;;;;;;;;23.80;36.20;;;;;;1590235;73;698;-58
2022/04/23 10:37:35;;;;;;;;;;;23.90;36.40;;;;;;1590719;74;729;-57
2022/04/23 10:39:36;;;;;;;;;;;23.80;36.30;;;;;;1596034;74;1291;-60
2022/04/23 10:41:38;;;;;;;;;;;23.80;36.40;;;;;;1589961;73;1556;-58
2022/04/23 10:43:46;;;;;;;;;;;23.80;36.40;;;;;;1587409;73;660;-61
2022/04/23 10:45:48;;;;;;;;;;;23.90;36.50;;;;;;1582414;73;2126;-59
2022/04/23 10:47:50;;;;;;;;;;;23.80;36.40;;;;;;1590967;73;744;-58
2022/04/23 10:49:52;;;;;;;;;;;23.80;36.50;;;;;;1586776;73;1123;-60
2022/04/23 10:51:57;;;;;;;;;;;23.80;36.50;;;;;;1560649;74;1361;-58
2022/04/23 10:53:59;;;;;;;;;;;23.90;36.60;;;;;;1556269;74;739;-57
2022/04/23 10:56:07;;;;;;;;;;;23.80;36.90;;;;;;1584719;72;1382;-60
2022/04/23 10:58:24;;;;;;;;;;;23.80;36.60;;;;;;1592096;72;827;-60
2022/04/23 11:00:30;;;;;;;;;;;23.70;36.50;;;;;;1564194;74;1128;-57
2022/04/23 11:02:30;;;;;;;;;;;23.70;35.90;;;;;;1574435;74;1658;-59
2022/04/23 11:04:34;;;;;;;;;;;23.60;36.00;;;;;;1590087;72;693;-61
2022/04/23 11:14:04;;;;;;;;;;;23.60;36.20;;;;;;1560809;74;1653;-58
2022/04/23 11:16:10;;;;;;;;;;;23.50;36.00;;;;;;1580364;74;724;-58
2022/04/23 11:18:12;;;;;;;;;;;23.50;36.00;;;;;;1588059;74;674;-58
2022/04/23 11:20:14;;;;;;;;;;;23.50;35.80;;;;;;1575710;74;1196;-59
2022/04/23 11:22:15;;;;;;;;;;;23.50;35.80;;;;;;1579885;73;784;-59
2022/04/23 11:24:17;;;;;;;;;;;23.40;35.90;;;;;;1588671;74;1550;-58
2022/04/23 11:26:22;;;;;;;;;;;23.50;36.10;;;;;;1578203;73;1957;-59
2022/04/23 11:28:24;;;;;;;;;;;23.40;36.00;;;;;;1589725;75;715;-60
2022/04/23 11:30:29;;;;;;;;;;;23.50;36.00;;;;;;1589636;75;1157;-60
2022/04/23 11:32:32;;;;;;;;;;;23.40;34.80;;;;;;1575936;74;686;-59
2022/04/23 11:34:39;;;;;;;;;;;23.20;34.00;;;;;;1583546;73;688;-59
2022/04/23 11:36:37;;;;;;;;;;;23.10;35.70;;;;;;1588401;74;1677;-57
2022/04/23 11:38:41;;;;;;;;;;;23.10;35.80;;;;;;1577774;74;661;-61
2022/04/23 11:40:43;;;;;;;;;;;23.00;35.90;;;;;;1578480;74;1127;-58
2022/04/23 11:42:46;;;;;;;;;;;23.00;35.90;;;;;;1578123;75;767;-59
2022/04/23 11:44:50;;;;;;;;;;;22.90;35.70;;;;;;1587176;73;665;-59
2022/04/23 11:46:52;;;;;;;;;;;22.90;36.00;;;;;;1586856;73;2089;-60
2022/04/23 11:48:54;;;;;;;;;;;22.70;36.00;;;;;;1582964;74;1138;-59
2022/04/23 11:51:06;;;;;;;;;;;22.80;35.90;;;;;;1582276;74;1476;-61
2022/04/23 11:53:09;;;;;;;;;;;22.70;36.30;;;;;;1580166;73;648;-59
2022/04/23 11:55:21;;;;;;;;;;;22.70;36.30;;;;;;1578449;73;729;-59
2022/04/23 11:57:23;;;;;;;;;;;22.60;36.30;;;;;;1583062;74;803;-62
2022/04/23 11:59:24;;;;;;;;;;;22.60;36.50;;;;;;1583177;74;1132;-60
2022/04/23 12:01:26;;;;;;;;;;;22.60;36.60;;;;;;1576294;74;699;-60
2022/04/23 12:03:28;;;;;;;;;;;22.60;36.60;;;;;;1574747;73;783;-58
2022/04/23 12:05:31;;;;;;;;;;;22.60;36.50;;;;;;1582863;74;1356;-58
2022/04/23 12:07:33;;;;;;;;;;;22.50;35.70;;;;;;1589535;75;1919;-61
2022/04/23 12:09:54;;;;;;;;;;;22.50;36.60;;;;;;1585795;74;1152;-60
2022/04/23 12:11:59;;;;;;;;;;;22.50;36.90;;;;;;1577855;73;1132;-56
2022/04/23 12:14:02;;;;;;;;;;;22.40;36.60;;;;;;1589770;75;762;-60
2022/04/23 12:16:05;;;;;;;;;;;22.40;36.80;;;;;;1580349;73;757;-58
2022/04/23 12:18:09;;;;;;;;;;;22.50;37.00;;;;;;1586347;74;750;-58
2022/04/23 12:20:12;;;;;;;;;;;22.50;36.70;;;;;;1588592;74;1880;-55
2022/04/23 12:22:15;;;;;;;;;;;22.50;36.60;;;;;;1589910;74;785;-59
2022/04/23 12:24:19;;;;;;;;;;;22.50;36.50;;;;;;1583118;73;1549;-57
2022/04/23 12:26:22;;;;;;;;;;;22.50;36.30;;;;;;1578675;73;1933;-59
2022/04/23 12:42:35;;;;;;;;;;;22.20;36.80;;;;;;1589668;73;1623;-60
2022/04/23 12:44:46;;;;;;;;;;;22.20;36.60;;;;;;1582789;75;695;-58
2022/04/23 12:46:54;;;;;;;;;;;22.10;36.60;;;;;;1578128;75;2018;-57
2022/04/23 12:48:59;;;;;;;;;;;22.20;36.70;;;;;;1583383;73;1791;-59
2022/04/23 12:51:06;;;;;;;;;;;22.20;36.80;;;;;;1581492;75;822;-59
2022/04/23 12:53:08;;;;;;;;;;;22.20;36.40;;;;;;1589814;75;715;-59
2022/04/23 12:55:14;;;;;;;;;;;22.10;36.80;;;;;;1585619;73;692;-58